KKY weather

Kilkenny Airport
Kilkenny, County Kilkenny, Ireland

Public forecast

Using degrees Celsius for public forecast. Weather courtesy of forecast.io.

METAR (pilot weather report)

Closest report is Waterford Airport, 28.9 nm (53.5 km) SSE. Retrieved 2019/06/25 15:30 UTC (0 seconds ago):

EIWF 251530Z 06005KT 040V100 9999 SCT028 BKN045 ///// Q1022

TAF (pilot weather forecast)

Closest forecast is Dublin Airport, 59.3 nm (109.8 km) NE. Retrieved 2019/06/25 12:00 UTC (3 hours ago):

TAF COR EIDW 251154Z 2512/2612 05011KT 9999 SCT012 BKN025 TEMPO 2512/2516 BKN012 TEMPO 2516/2519 BKN012 BECMG 2519/2521 03005KT TEMPO 2523/2606 5000 BR SCT012 PROB30 TEMPO 2600/2605 3000 BECMG 2605/2607 03010KT PROB40 TEMPO 2606/2608 BKN012 BECMG 2610/2612 06011KT